Time;durP1;ratioP1;P1;durP2;ratioP2;P2;SDS_P1;SDS_P2;PMS_P1;PMS_P2;Temp;Humidity;BMP_temperature;BMP_pressure;BME280_temperature;BME280_humidity;BME280_pressure;Samples;Min_cycle;Max_cycle;Signal;HPM_P1;HPM_P2
2023/01/01 00:01:06;;;;;;;101.22;43.40;;;13.00;99.90;;;;;;4920718;29;20047;-75
2023/01/01 00:03:32;;;;;;;102.40;42.72;;;;;;;;;;4920623;29;20083;-75
2023/01/01 00:05:58;;;;;;;89.80;36.28;;;;;;;;;;4904653;29;20051;-75
2023/01/01 00:08:24;;;;;;;109.75;40.65;;;;;;;;;;4920227;29;20157;-75
2023/01/01 00:10:50;;;;;;;84.10;39.28;;;;;;;;;;4904834;29;20055;-75
2023/01/01 00:13:16;;;;;;;87.28;32.47;;;;;;;;;;4904467;29;20079;-74
2023/01/01 00:15:42;;;;;;;78.72;33.72;;;;;;;;;;4919999;29;20044;-75
2023/01/01 00:18:08;;;;;;;78.63;29.90;;;;;;;;;;4919985;29;20054;-75
2023/01/01 00:20:34;;;;;;;70.13;28.80;;;;;;;;;;4904368;29;20039;-75
2023/01/01 00:23:00;;;;;;;79.85;30.48;;;;;;;;;;4904284;29;20067;-75
2023/01/01 00:25:27;;;;;;;72.03;27.15;;;;;;;;;;4919436;29;20531;-75
2023/01/01 00:27:53;;;;;;;68.93;25.85;;;;;;;;;;4919945;29;20523;-75
2023/01/01 00:30:19;;;;;;;69.22;25.88;;;;;;;;;;4904535;29;20122;-75
2023/01/01 00:32:45;;;;;;;85.72;31.42;;;;;;;;;;4919921;29;20055;-75
2023/01/01 00:35:11;;;;;;;89.88;37.53;;;;;;;;;;4919769;29;20043;-75
2023/01/01 00:37:37;;;;;;;88.97;31.63;;;;;;;;;;4919528;29;20508;-75
2023/01/01 00:40:03;;;;;;;91.20;33.47;;;;;;;;;;4919888;29;20048;-75
2023/01/01 00:42:29;;;;;;;93.40;32.63;;;;;;;;;;4919492;29;20131;-75
2023/01/01 00:44:55;;;;;;;83.05;35.58;;;;;;;;;;4904092;29;20088;-75
2023/01/01 00:47:21;;;;;;;116.90;42.78;;;;;;;;;;4903877;29;20485;-75
2023/01/01 00:49:47;;;;;;;94.05;38.35;;;;;;;;;;4919685;29;20044;-76
2023/01/01 00:52:14;;;;;;;85.18;33.83;;;;;;;;;;4919975;29;20051;-75
2023/01/01 00:54:40;;;;;;;81.85;28.45;;;;;;;;;;4919579;29;20130;-75
2023/01/01 00:57:06;;;;;;;73.18;28.33;;;;;;;;;;4919287;29;20058;-75
2023/01/01 00:59:33;;;;;;;84.65;25.00;;;;;;;;;;4919801;29;20470;-75
2023/01/01 01:01:59;;;;;;;77.55;28.92;;;;;;;;;;4919225;29;20046;-75
2023/01/01 01:04:25;;;;;;;66.75;21.23;;;;;;;;;;4919295;29;20070;-75
2023/01/01 01:06:51;;;;;;;67.03;19.02;;;;;;;;;;4919335;29;20134;-74
2023/01/01 01:09:17;;;;;;;47.85;13.13;;;;;;;;;;4919415;29;20403;-75
2023/01/01 01:11:43;;;;;;;50.97;15.25;;;;;;;;;;4919324;29;20055;-75
2023/01/01 01:14:09;;;;;;;41.10;11.98;;;;;;;;;;4919323;29;20582;-75
2023/01/01 01:16:35;;;;;;;47.08;12.50;;;;;;;;;;4919092;29;20083;-75
2023/01/01 01:19:04;;;;;;;44.00;12.45;;;;;;;;;;4919420;29;20040;-76
2023/01/01 01:21:31;;;;;;;59.67;16.58;;;12.90;99.90;;;;;;4919181;29;20043;-75
2023/01/01 01:23:58;;;;;;;41.85;12.13;;;12.80;99.90;;;;;;4903718;29;20039;-76
2023/01/01 01:26:29;;;;;;;47.30;11.95;;;12.70;99.90;;;;;;4919078;29;20043;-75
2023/01/01 01:28:56;;;;;;;57.15;12.68;;;;;;;;;;4903512;29;20048;-76
2023/01/01 01:31:23;;;;;;;39.42;10.77;;;12.90;99.90;;;;;;4919404;29;20035;-76
2023/01/01 01:33:49;;;;;;;50.20;10.73;;;;;;;;;;4903553;29;20043;-76
2023/01/01 01:36:17;;;;;;;38.13;9.48;;;12.70;99.90;;;;;;4903221;29;20127;-75
2023/01/01 01:38:43;;;;;;;42.83;10.73;;;;;;;;;;4936234;29;20043;-76
2023/01/01 01:41:11;;;;;;;47.15;12.38;;;12.40;99.90;;;;;;4919296;29;20101;-76
2023/01/01 01:43:37;;;;;;;42.55;11.32;;;;;;;;;;4919170;29;20068;-76
2023/01/01 01:46:12;;;;;;;51.25;11.20;;;12.40;99.90;;;;;;4919288;29;20042;-76
2023/01/01 01:48:42;;;;;;;50.08;8.98;;;12.40;99.90;;;;;;4919242;29;20135;-76
2023/01/01 01:51:08;;;;;;;53.25;12.25;;;;;;;;;;4903623;29;20181;-75
2023/01/01 01:53:39;;;;;;;54.00;12.02;;;12.40;99.90;;;;;;4903591;29;20048;-75
2023/01/01 01:56:09;;;;;;;54.38;12.95;;;12.40;99.90;;;;;;4918682;29;20055;-75
2023/01/01 01:58:35;;;;;;;52.00;12.85;;;;;;;;;;4935966;29;20127;-75
2023/01/01 02:01:02;;;;;;;49.35;10.45;;;;;;;;;;4918885;29;20050;-75
2023/01/01 02:03:45;;;;;;;51.03;9.73;;;12.10;99.90;;;;;;4918964;29;20555;-75
2023/01/01 02:06:11;;;;;;;44.10;9.65;;;;;;;;;;4918711;29;20485;-76
2023/01/01 02:08:38;;;;;;;45.30;10.30;;;;;;;;;;4918580;29;20098;-75
2023/01/01 02:11:04;;;;;;;39.55;8.73;;;;;;;;;;4903026;29;20127;-75
2023/01/01 02:13:30;;;;;;;46.30;8.48;;;;;;;;;;4918948;29;20051;-75
2023/01/01 02:16:21;;;;;;;36.63;9.73;;;12.20;99.90;;;;;;4918565;29;20472;-75
2023/01/01 02:18:55;;;;;;;41.72;8.95;;;11.90;99.90;;;;;;4918633;29;20153;-75
2023/01/01 02:21:37;;;;;;;40.30;8.98;;;12.10;99.90;;;;;;4935763;29;20044;-75
2023/01/01 02:24:35;;;;;;;44.65;9.25;;;12.10;99.90;;;;;;4919007;29;20071;-75
2023/01/01 02:27:09;;;;;;;38.20;8.90;;;11.70;99.90;;;;;;4918647;29;20059;-73
2023/01/01 02:29:53;;;;;;;43.67;10.00;;;12.00;99.90;;;;;;4935842;29;20079;-73
2023/01/01 02:32:26;;;;;;;43.15;9.27;;;12.10;99.90;;;;;;4918625;29;20050;-73
2023/01/01 02:38:03;;;;;;;37.63;7.95;;;11.90;99.90;;;;;;4918518;29;20440;-74
2023/01/01 02:40:30;;;;;;;;;;;11.90;99.90;;;;;;4903296;29;20044;-79
2023/01/01 02:42:57;;;;;;;38.22;7.95;;;11.90;99.90;;;;;;4918332;29;19927;-79
2023/01/01 02:45:23;;;;;;;43.22;8.40;;;;;;;;;;4918515;29;20123;-79
2023/01/01 02:47:49;;;;;;;36.17;8.45;;;;;;;;;;4920300;29;20055;-79
2023/01/01 02:50:15;;;;;;;34.72;7.45;;;;;;;;;;4921875;29;20504;-80
2023/01/01 02:52:53;;;;;;;42.85;7.25;;;12.00;99.90;;;;;;4921851;29;20048;-80
2023/01/01 02:55:44;;;;;;;45.15;7.75;;;11.90;99.90;;;;;;4921748;29;20040;-79
2023/01/01 03:01:41;;;;;;;40.65;8.02;;;11.90;99.90;;;;;;4921585;29;20055;-79
2023/01/01 03:04:11;;;;;;;33.65;8.73;;;;;;;;;;4921781;29;20433;-79
2023/01/01 03:06:59;;;;;;;33.00;7.20;;;12.10;99.90;;;;;;4921506;29;20056;-79
2023/01/01 03:09:44;;;;;;;35.72;6.90;;;11.90;99.90;;;;;;4921535;29;20048;-78
2023/01/01 03:12:41;;;;;;;37.03;6.95;;;11.90;99.90;;;;;;4905659;29;20040;-79
2023/01/01 03:15:25;;;;;;;42.95;7.57;;;12.00;99.90;;;;;;4917452;29;20123;-79
2023/01/01 03:18:11;;;;;;;27.40;6.65;;;11.80;99.90;;;;;;4905646;29;20040;-79
2023/01/01 03:20:41;;;;;;;32.67;7.82;;;12.00;99.90;;;;;;4921164;29;20520;-79
2023/01/01 03:23:12;;;;;;;28.63;6.82;;;11.70;99.90;;;;;;4921490;29;20377;-78
2023/01/01 03:26:00;;;;;;;41.55;7.72;;;11.80;99.90;;;;;;4921349;29;20044;-79
2023/01/01 03:28:32;;;;;;;37.67;7.50;;;11.60;99.90;;;;;;4905748;29;20051;-78
2023/01/01 03:30:58;;;;;;;36.07;7.60;;;;;;;;;;4921137;29;20099;-78
2023/01/01 03:33:37;;;;;;;46.20;8.65;;;11.80;99.90;;;;;;4921342;29;20054;-79
2023/01/01 03:36:04;;;;;;;39.63;7.78;;;;;;;;;;4921472;29;20138;-79
2023/01/01 03:38:32;;;;;;;33.88;7.43;;;11.60;99.90;;;;;;4921085;29;20362;-78
2023/01/01 03:41:13;;;;;;;39.65;9.00;;;11.70;99.90;;;;;;4921019;29;20093;-78
2023/01/01 03:44:14;;;;;;;37.22;7.70;;;11.60;99.90;;;;;;4920799;29;20059;-79
2023/01/01 03:46:42;;;;;;;35.70;7.43;;;;;;;;;;4905481;29;20488;-78
2023/01/01 03:49:10;;;;;;;44.42;8.45;;;11.80;99.90;;;;;;4920890;29;20098;-78
2023/01/01 03:51:57;;;;;;;35.40;7.07;;;11.60;99.90;;;;;;4921045;29;20039;-75
2023/01/01 03:54:36;;;;;;;45.47;7.80;;;11.50;99.90;;;;;;4920840;29;20492;-75
2023/01/01 03:57:25;;;;;;;49.75;9.93;;;11.70;99.90;;;;;;4901685;29;20044;-75
2023/01/01 04:00:06;;;;;;;45.10;8.45;;;11.70;99.90;;;;;;4901046;29;20048;-75
2023/01/01 04:03:12;;;;;;;41.80;7.50;;;11.70;99.90;;;;;;4902039;29;20083;-75
2023/01/01 04:05:41;;;;;;;33.97;7.32;;;11.50;99.90;;;;;;4888166;29;20052;-75
2023/01/01 04:08:08;;;;;;;47.17;8.10;;;11.50;99.90;;;;;;4901694;29;20091;-75
2023/01/01 04:10:38;;;;;;;43.47;7.78;;;11.60;99.90;;;;;;4901973;29;20047;-75
2023/01/01 04:13:05;;;;;;;52.28;8.90;;;11.60;99.90;;;;;;4901760;29;20109;-75
2023/01/01 04:15:32;;;;;;;32.38;6.80;;;11.50;99.90;;;;;;4901491;29;20125;-75
2023/01/01 04:17:58;;;;;;;39.92;8.65;;;;;;;;;;4901482;29;20076;-75
2023/01/01 04:20:24;;;;;;;44.80;8.00;;;;;;;;;;4886101;29;20118;-75
2023/01/01 04:22:50;;;;;;;52.28;8.07;;;;;;;;;;4885789;29;20047;-75
2023/01/01 04:25:17;;;;;;;29.35;5.55;;;;;;;;;;4886088;29;20044;-75
2023/01/01 04:27:43;;;;;;;31.55;6.63;;;;;;;;;;4885675;29;20051;-75
2023/01/01 04:30:10;;;;;;;38.92;5.95;;;;;;;;;;4900874;29;20050;-75
2023/01/01 04:32:37;;;;;;;31.60;7.57;;;;;;;;;;4901088;29;20103;-75
2023/01/01 04:35:03;;;;;;;42.25;6.30;;;11.50;99.90;;;;;;4885651;29;20044;-75
2023/01/01 04:37:29;;;;;;;29.30;5.68;;;;;;;;;;4900880;29;20044;-75
2023/01/01 04:39:55;;;;;;;39.70;6.68;;;;;;;;;;4909549;29;20040;-75
2023/01/01 04:51:13;;;;;;;51.05;7.60;;;;;;;;;;5715357;23;20022;-77
2023/01/01 04:53:40;;;;;;;49.00;7.78;;;;;;;;;;4913621;29;20051;-75
2023/01/01 04:56:08;;;;;;;51.10;8.45;;;11.50;99.90;;;;;;4918923;29;20035;-75
2023/01/01 04:58:35;;;;;;;37.22;6.85;;;11.30;99.90;;;;;;4919439;29;20491;-75
2023/01/01 05:01:01;;;;;;;41.40;6.50;;;;;;;;;;4919855;29;20086;-75
2023/01/01 05:03:28;;;;;;;44.60;6.70;;;;;;;;;;4919513;29;20040;-76
2023/01/01 05:06:05;;;;;;;54.92;8.68;;;11.50;99.90;;;;;;4919439;29;20070;-75
2023/01/01 05:08:32;;;;;;;37.13;7.28;;;11.30;99.90;;;;;;4919715;29;20463;-75
2023/01/01 05:11:00;;;;;;;53.50;6.78;;;11.30;99.90;;;;;;4919279;29;20097;-75
2023/01/01 05:13:26;;;;;;;51.00;6.68;;;;;;;;;;4903904;29;20563;-75
2023/01/01 05:15:52;;;;;;;42.90;6.43;;;;;;;;;;4903647;29;20047;-75
2023/01/01 05:18:18;;;;;;;45.70;6.50;;;;;;;;;;4919363;29;20054;-75
2023/01/01 05:20:44;;;;;;;48.13;9.05;;;;;;;;;;4919425;29;20399;-75
2023/01/01 05:23:10;;;;;;;44.00;7.13;;;;;;;;;;4903744;29;20105;-75
2023/01/01 05:25:36;;;;;;;56.13;8.18;;;;;;;;;;4919450;29;20083;-75
2023/01/01 05:28:02;;;;;;;48.92;6.50;;;;;;;;;;4903766;29;20051;-75
2023/01/01 05:30:28;;;;;;;42.45;7.45;;;;;;;;;;4919219;29;20130;-75
2023/01/01 05:32:54;;;;;;;37.65;6.85;;;;;;;;;;4919200;29;20048;-75
2023/01/01 05:35:21;;;;;;;35.45;7.07;;;;;;;;;;4919307;29;20040;-75
2023/01/01 05:37:47;;;;;;;41.33;6.93;;;;;;;;;;4919160;29;20040;-75
2023/01/01 05:40:13;;;;;;;53.15;5.35;;;;;;;;;;4919155;29;20082;-75
2023/01/01 05:42:39;;;;;;;53.72;7.18;;;;;;;;;;4903429;29;20043;-75
2023/01/01 05:45:05;;;;;;;48.00;8.38;;;12.00;99.90;;;;;;4919070;29;20499;-75
2023/01/01 05:47:31;;;;;;;36.13;5.05;;;;;;;;;;4903665;29;20399;-75
2023/01/01 05:49:57;;;;;;;44.67;6.72;;;;;;;;;;4919305;29;20392;-75
2023/01/01 05:52:23;;;;;;;45.92;5.70;;;;;;;;;;4884503;29;20422;-75
2023/01/01 05:54:49;;;;;;;32.20;4.47;;;;;;;;;;4900140;29;20062;-75
2023/01/01 05:57:15;;;;;;;42.35;6.57;;;;;;;;;;4900367;29;20051;-75
2023/01/01 05:59:42;;;;;;;37.05;5.72;;;;;;;;;;4900145;29;20055;-75
2023/01/01 06:02:08;;;;;;;41.53;5.32;;;;;;;;;;4884359;29;20050;-75
2023/01/01 06:04:34;;;;;;;31.75;5.88;;;;;;;;;;4900013;29;20044;-75
2023/01/01 06:07:00;;;;;;;49.42;5.18;;;;;;;;;;4884510;29;20044;-75
2023/01/01 06:09:27;;;;;;;48.22;6.38;;;;;;;;;;4900032;29;20048;-75
2023/01/01 06:11:53;;;;;;;49.03;5.22;;;;;;;;;;4884562;29;20115;-75
2023/01/01 06:14:19;;;;;;;27.02;3.97;;;;;;;;;;4899952;29;20048;-75
2023/01/01 06:16:45;;;;;;;42.70;5.80;;;;;;;;;;4884372;29;20564;-75
2023/01/01 06:19:11;;;;;;;38.53;4.78;;;;;;;;;;4899908;29;20095;-75
2023/01/01 06:21:37;;;;;;;24.75;3.83;;;;;;;;;;4884391;29;20040;-75
2023/01/01 06:24:03;;;;;;;33.85;4.22;;;;;;;;;;4887973;29;20040;-75
2023/01/01 06:26:31;;;;;;;42.25;5.13;;;11.10;99.90;;;;;;4903333;29;20091;-75
2023/01/01 06:28:57;;;;;;;41.03;4.80;;;;;;;;;;4903336;29;20047;-75
2023/01/01 06:31:23;;;;;;;38.13;5.05;;;;;;;;;;4903320;29;20500;-75
2023/01/01 06:33:50;;;;;;;42.20;5.60;;;;;;;;;;4903467;29;20180;-75
2023/01/01 06:36:18;;;;;;;45.63;5.35;;;10.90;99.90;;;;;;4887919;29;20468;-75
2023/01/01 06:38:46;;;;;;;56.13;5.30;;;10.90;99.90;;;;;;4903244;29;20400;-75
2023/01/01 06:41:17;;;;;;;36.88;4.53;;;10.70;99.90;;;;;;4903431;29;20494;-75
2023/01/01 06:43:44;;;;;;;54.92;6.00;;;;;;;;;;4903211;29;20117;-75
2023/01/01 06:46:16;;;;;;;46.30;5.70;;;;;;;;;;4903266;29;20043;-75
2023/01/01 06:48:42;;;;;;;39.83;5.00;;;;;;;;;;4887806;29;20087;-75
2023/01/01 06:51:11;;;;;;;42.03;4.47;;;11.00;99.90;;;;;;4902932;29;20083;-75
2023/01/01 06:53:37;;;;;;;51.70;6.95;;;;;;;;;;4902735;29;20520;-74
2023/01/01 06:56:03;;;;;;;45.67;4.10;;;;;;;;;;4903000;29;20048;-75
2023/01/01 06:58:29;;;;;;;48.85;6.53;;;;;;;;;;4902869;29;20488;-75
2023/01/01 07:01:06;;;;;;;41.30;4.85;;;10.90;99.90;;;;;;4887326;29;20059;-74
2023/01/01 07:03:32;;;;;;;41.45;3.85;;;;;;;;;;4902870;29;20047;-74
2023/01/01 07:05:58;;;;;;;38.90;5.38;;;;;;;;;;4903054;29;20044;-75
2023/01/01 07:08:24;;;;;;;53.90;5.88;;;;;;;;;;4887422;29;20067;-75
2023/01/01 07:10:50;;;;;;;51.00;5.85;;;;;;;;;;4887475;29;20048;-75
2023/01/01 07:13:16;;;;;;;41.38;4.30;;;;;;;;;;4887161;29;20044;-75
2023/01/01 07:15:43;;;;;;;34.17;4.47;;;;;;;;;;4887140;29;20052;-74
2023/01/01 07:18:09;;;;;;;51.88;5.85;;;;;;;;;;4902617;29;20047;-74
2023/01/01 07:20:35;;;;;;;45.55;4.57;;;;;;;;;;4902382;29;20048;-75
2023/01/01 07:23:01;;;;;;;44.53;4.88;;;;;;;;;;4902431;29;20105;-74
2023/01/01 07:25:27;;;;;;;50.63;4.90;;;;;;;;;;4902400;29;20040;-74
2023/01/01 07:27:53;;;;;;;56.10;6.32;;;;;;;;;;4902374;29;20048;-74
2023/01/01 07:30:19;;;;;;;54.22;4.97;;;;;;;;;;4886615;29;20050;-75
2023/01/01 07:32:45;;;;;;;47.10;4.57;;;;;;;;;;4902198;29;20733;-75
2023/01/01 07:35:11;;;;;;;65.70;8.05;;;;;;;;;;4902331;29;20508;-75
2023/01/01 07:37:37;;;;;;;57.17;5.97;;;;;;;;;;4902035;29;20516;-75
2023/01/01 07:40:03;;;;;;;57.88;7.40;;;11.50;99.90;;;;;;4902028;29;20135;-74
2023/01/01 07:42:29;;;;;;;65.13;5.75;;;;;;;;;;4902050;29;20044;-75
2023/01/01 07:44:55;;;;;;;49.22;4.70;;;;;;;;;;4886470;29;20044;-75
2023/01/01 07:47:25;;;;;;;78.03;6.15;;;10.70;99.90;;;;;;4886275;29;20043;-75
2023/01/01 07:49:51;;;;;;;69.10;6.30;;;10.80;99.90;;;;;;4901865;29;20052;-74
2023/01/01 07:52:17;;;;;;;55.67;6.07;;;;;;;;;;4886283;29;20107;-75
2023/01/01 07:54:44;;;;;;;49.83;5.13;;;;;;;;;;4886178;29;20394;-74
2023/01/01 07:57:11;;;;;;;39.30;5.13;;;;;;;;;;4901729;29;20051;-74
2023/01/01 07:59:37;;;;;;;45.05;5.28;;;;;;;;;;4901571;29;20448;-75
2023/01/01 08:02:03;;;;;;;51.50;5.60;;;;;;;;;;4901820;29;20039;-74
2023/01/01 08:04:29;;;;;;;57.08;6.38;;;;;;;;;;4885970;29;20503;-74
2023/01/01 08:06:55;;;;;;;46.97;6.38;;;;;;;;;;4886744;29;20066;-74
2023/01/01 08:09:21;;;;;;;62.42;6.43;;;;;;;;;;4885896;29;20485;-74
2023/01/01 08:11:48;;;;;;;38.70;5.32;;;;;;;;;;4901499;29;20555;-74
2023/01/01 08:14:14;;;;;;;58.33;6.93;;;;;;;;;;4885951;29;20122;-74
2023/01/01 08:16:40;;;;;;;44.33;5.05;;;;;;;;;;4901536;29;20036;-74
2023/01/01 08:19:06;;;;;;;53.55;5.55;;;;;;;;;;4901337;29;20048;-74
2023/01/01 08:21:32;;;;;;;54.60;6.32;;;;;;;;;;4885965;29;20114;-74
2023/01/01 08:23:58;;;;;;;49.30;6.35;;;;;;;;;;4901351;29;20131;-74
2023/01/01 08:26:29;;;;;;;48.15;5.35;;;10.50;99.90;;;;;;4901165;29;20510;-74
2023/01/01 08:28:56;;;;;;;44.67;5.03;;;;;;;;;;4901230;29;20103;-75
2023/01/01 08:31:22;;;;;;;54.65;7.10;;;;;;;;;;4885625;29;20055;-74
2023/01/01 08:33:48;;;;;;;59.55;8.60;;;;;;;;;;4901112;29;20052;-75
2023/01/01 08:36:15;;;;;;;69.90;7.05;;;;;;;;;;4885503;29;20075;-74
2023/01/01 08:38:41;;;;;;;67.97;6.80;;;10.70;99.90;;;;;;4900947;29;20488;-74
2023/01/01 08:41:08;;;;;;;60.97;7.03;;;;;;;;;;4885453;29;20048;-74
2023/01/01 08:43:34;;;;;;;74.03;6.93;;;;;;;;;;4900914;29;20075;-75
2023/01/01 08:46:00;;;;;;;71.75;6.60;;;;;;;;;;4900302;29;20534;-74
2023/01/01 08:48:26;;;;;;;64.35;7.13;;;;;;;;;;4885230;29;20103;-74
2023/01/01 08:50:53;;;;;;;51.72;5.75;;;10.70;99.90;;;;;;4886210;29;20062;-74
2023/01/01 08:53:19;;;;;;;60.88;6.43;;;;;;;;;;4900644;29;20060;-73
2023/01/01 08:55:45;;;;;;;73.93;6.50;;;;;;;;;;4916730;29;20408;-74
2023/01/01 08:58:11;;;;;;;72.28;7.47;;;;;;;;;;4900712;29;20044;-74
2023/01/01 09:00:37;;;;;;;56.35;4.88;;;;;;;;;;4900699;29;20044;-74
2023/01/01 09:03:03;;;;;;;55.40;6.05;;;;;;;;;;4900793;29;20135;-74
2023/01/01 09:05:29;;;;;;;66.22;5.65;;;;;;;;;;4900841;29;20040;-72
2023/01/01 09:07:55;;;;;;;54.28;6.22;;;;;;;;;;4885025;29;20044;-74
2023/01/01 09:10:21;;;;;;;84.60;7.10;;;;;;;;;;4900441;29;20051;-74
2023/01/01 09:12:47;;;;;;;56.38;5.63;;;;;;;;;;4900417;29;20051;-73
2023/01/01 09:15:15;;;;;;;51.33;4.97;;;;;;;;;;4885153;29;20400;-74
2023/01/01 09:17:41;;;;;;;49.72;4.85;;;;;;;;;;4884911;29;20040;-73
2023/01/01 09:20:07;;;;;;;52.60;6.60;;;;;;;;;;4884990;29;20048;-74
2023/01/01 09:22:33;;;;;;;57.20;6.65;;;;;;;;;;4896768;29;20088;-74
2023/01/01 09:24:59;;;;;;;55.67;5.03;;;;;;;;;;4900317;29;20044;-74
2023/01/01 09:27:25;;;;;;;69.78;5.88;;;;;;;;;;4884522;29;20051;-74
2023/01/01 09:29:51;;;;;;;73.85;7.50;;;;;;;;;;4884506;29;20052;-74
2023/01/01 09:32:18;;;;;;;59.08;5.57;;;;;;;;;;4900447;29;20052;-74
2023/01/01 09:34:44;;;;;;;64.28;5.57;;;;;;;;;;4900267;29;20044;-74
2023/01/01 09:37:10;;;;;;;52.22;4.90;;;;;;;;;;4899976;29;20040;-74
2023/01/01 09:39:36;;;;;;;80.85;8.27;;;;;;;;;;4900083;29;20044;-74
2023/01/01 09:42:15;;;;;;;66.25;6.28;;;;;;;;;;4884326;29;20044;-74
2023/01/01 09:44:41;;;;;;;66.28;6.50;;;;;;;;;;4884314;29;20400;-73
2023/01/01 09:47:26;;;;;;;66.00;7.50;;;10.50;99.90;;;;;;4884322;29;20052;-73
2023/01/01 09:49:57;;;;;;;64.47;5.63;;;10.30;99.90;;;;;;4884916;29;20059;-73
2023/01/01 09:52:24;;;;;;;59.15;5.65;;;;;;;;;;4899369;29;20063;-74
2023/01/01 09:54:57;;;;;;;61.42;7.05;;;10.80;99.90;;;;;;4884344;29;20083;-74
2023/01/01 09:57:28;;;;;;;81.43;7.20;;;;;;;;;;4903148;29;20043;-74
2023/01/01 09:59:55;;;;;;;58.15;5.80;;;;;;;;;;4888514;29;20131;-73
2023/01/01 10:02:27;;;;;;;64.57;7.35;;;;;;;;;;4903795;29;20040;-73
2023/01/01 10:05:31;;;;;;;52.83;5.32;;;10.70;99.90;;;;;;4904159;29;20036;-73
2023/01/01 10:08:09;;;;;;;70.45;6.00;;;10.70;99.90;;;;;;4903616;29;20111;-74
2023/01/01 10:10:40;;;;;;;86.18;10.52;;;;;;;;;;4888205;29;20044;-74
2023/01/01 10:13:07;;;;;;;55.78;6.63;;;;;;;;;;4903382;29;20103;-74
2023/01/01 10:15:35;;;;;;;80.07;6.53;;;;;;;;;;4881483;29;20044;-74
2023/01/01 10:18:13;;;;;;;60.92;7.50;;;10.70;99.90;;;;;;4879861;29;20060;-73
2023/01/01 10:21:06;;;;;;;74.35;7.75;;;11.00;99.90;;;;;;4887762;29;20051;-74
2023/01/01 10:23:44;;;;;;;53.63;5.72;;;;;;;;;;4882588;29;20216;-74
2023/01/01 10:26:15;;;;;;;57.95;5.28;;;;;;;;;;4887887;29;20083;-74
2023/01/01 10:28:54;;;;;;;64.93;6.53;;;;;;;;;;4888348;29;20051;-74
2023/01/01 10:31:27;;;;;;;75.20;7.95;;;;;;;;;;4902989;29;20504;-74
2023/01/01 10:33:57;;;;;;;65.93;6.82;;;;;;;;;;4902205;29;20122;-74
2023/01/01 10:36:24;;;;;;;67.07;5.95;;;;;;;;;;4884890;29;20114;-74
2023/01/01 10:38:51;;;;;;;63.92;5.80;;;;;;;;;;4886887;29;20120;-74
2023/01/01 10:41:20;;;;;;;79.68;6.70;;;;;;;;;;4902983;29;20040;-74
2023/01/01 10:43:47;;;;;;;60.50;4.90;;;;;;;;;;4887370;29;20045;-74
2023/01/01 10:46:19;;;;;;;45.70;4.72;;;;;;;;;;4887540;29;20040;-74
2023/01/01 10:49:12;;;;;;;51.70;6.05;;;11.10;99.90;;;;;;4902690;29;20051;-74
2023/01/01 10:51:46;;;;;;;45.72;4.38;;;;;;;;;;4897009;29;20052;-75
2023/01/01 10:54:21;;;;;;;49.03;6.03;;;;;;;;;;4887212;29;20615;-74
2023/01/01 10:56:47;;;;;;;50.85;7.38;;;;;;;;;;4876602;29;20115;-75
2023/01/01 10:59:46;;;;;;;43.20;4.78;;;;;;;;;;4893232;29;20116;-75
2023/01/01 11:02:23;;;;;;;51.42;5.35;;;;;;;;;;4844658;29;20132;-75
2023/01/01 11:04:51;;;;;;;54.33;5.85;;;11.20;99.90;;;;;;4900066;29;20036;-75
2023/01/01 11:07:39;;;;;;;49.25;5.65;;;11.30;99.90;;;;;;4903311;29;20484;-74
2023/01/01 11:10:06;;;;;;;37.72;4.45;;;;;;;;;;4901067;29;20040;-74
2023/01/01 11:12:37;;;;;;;59.92;6.90;;;11.20;99.90;;;;;;4883915;29;20076;-74
2023/01/01 11:15:04;;;;;;;47.35;5.80;;;;;;;;;;4853261;29;20053;-76
2023/01/01 11:17:35;;;;;;;53.95;5.53;;;;;;;;;;4883827;29;20204;-74
2023/01/01 11:20:02;;;;;;;48.15;5.53;;;;;;;;;;4868325;29;20441;-74
2023/01/01 11:22:40;;;;;;;42.15;5.75;;;;;;;;;;4870545;29;20445;-74
2023/01/01 11:25:31;;;;;;;50.08;4.97;;;11.20;99.90;;;;;;4918003;29;20088;-74
2023/01/01 11:28:15;;;;;;;47.97;5.68;;;;;;;;;;4886822;29;20052;-74
2023/01/01 11:30:57;;;;;;;50.15;5.93;;;;;;;;;;4886253;29;20040;-74
2023/01/01 11:33:28;;;;;;;44.90;5.07;;;11.20;99.90;;;;;;4902110;29;20056;-73
2023/01/01 11:35:55;;;;;;;63.22;4.68;;;11.20;99.90;;;;;;4881372;29;20500;-73
2023/01/01 11:38:24;;;;;;;43.47;4.20;;;11.20;99.90;;;;;;4902001;29;20047;-74
2023/01/01 11:40:55;;;;;;;54.55;6.53;;;11.40;99.90;;;;;;4901923;29;20051;-75
2023/01/01 11:43:29;;;;;;;66.47;5.38;;;;;;;;;;4901850;29;20043;-74
2023/01/01 11:45:57;;;;;;;51.75;4.72;;;11.10;99.90;;;;;;4902780;29;20095;-74
2023/01/01 11:48:27;;;;;;;59.95;5.88;;;;;;;;;;4901887;29;20131;-74
2023/01/01 11:50:54;;;;;;;52.70;5.38;;;;;;;;;;4901713;29;20048;-75
2023/01/01 11:53:23;;;;;;;55.42;5.82;;;;;;;;;;4886026;29;20497;-75
2023/01/01 11:56:08;;;;;;;46.22;6.47;;;11.20;99.90;;;;;;4882936;29;20080;-75
2023/01/01 11:58:52;;;;;;;40.90;4.35;;;;;;;;;;4882743;29;20045;-75
2023/01/01 12:01:18;;;;;;;57.60;7.45;;;;;;;;;;4882645;29;20049;-75
2023/01/01 12:03:53;;;;;;;40.40;4.65;;;11.20;99.90;;;;;;4867381;29;20047;-75
2023/01/01 12:06:22;;;;;;;38.95;4.13;;;;;;;;;;4867353;29;20131;-75
2023/01/01 12:09:16;;;;;;;53.53;6.10;;;11.30;99.90;;;;;;4882659;29;20084;-75
2023/01/01 12:12:19;;;;;;;51.83;6.53;;;11.50;99.90;;;;;;4885405;29;20079;-75
2023/01/01 12:15:23;;;;;;;65.57;5.10;;;11.30;99.90;;;;;;4901104;29;20054;-73
2023/01/01 12:18:13;;;;;;;31.90;4.90;;;11.30;99.90;;;;;;4901077;29;20048;-73
2023/01/01 12:20:48;;;;;;;41.90;4.35;;;11.20;99.90;;;;;;4900404;29;20050;-73
2023/01/01 12:23:17;;;;;;;31.70;4.55;;;11.40;99.90;;;;;;4885798;29;20070;-73
2023/01/01 12:25:44;;;;;;;46.00;4.30;;;;;;;;;;4901260;29;20048;-73
2023/01/01 12:28:23;;;;;;;44.40;3.90;;;11.40;99.90;;;;;;4901212;29;20052;-73
2023/01/01 12:30:55;;;;;;;47.13;5.18;;;11.00;99.90;;;;;;4901199;29;20515;-73
2023/01/01 12:33:31;;;;;;;48.23;4.17;;;11.40;99.90;;;;;;4901127;29;20080;-73
2023/01/01 12:36:14;;;;;;;56.15;5.63;;;11.50;99.90;;;;;;4901383;29;20044;-73
2023/01/01 12:39:20;;;;;;;48.67;6.93;;;11.60;99.90;;;;;;4901010;29;20048;-73
2023/01/01 12:42:04;;;;;;;38.83;4.20;;;;;;;;;;4899926;29;20523;-73
2023/01/01 12:44:30;;;;;;;45.78;4.80;;;;;;;;;;4899805;29;20543;-73
2023/01/01 12:46:56;;;;;;;40.60;5.80;;;;;;;;;;4900394;29;20074;-73
2023/01/01 12:49:41;;;;;;;40.15;5.85;;;11.50;99.90;;;;;;4900465;29;20095;-73
2023/01/01 12:52:10;;;;;;;36.65;5.53;;;;;;;;;;4897065;29;20059;-73
2023/01/01 12:54:55;;;;;;;45.80;5.22;;;;;;;;;;4894891;29;20051;-73
2023/01/01 12:57:21;;;;;;;54.53;8.07;;;;;;;;;;4898561;29;20047;-73
2023/01/01 12:59:48;;;;;;;40.13;6.45;;;;;;;;;;4900147;29;20119;-73
2023/01/01 13:02:20;;;;;;;43.65;7.10;;;11.60;99.90;;;;;;4900236;29;20088;-73
2023/01/01 13:04:51;;;;;;;42.25;7.55;;;11.50;99.90;;;;;;4900176;29;20119;-73
2023/01/01 13:07:24;;;;;;;44.15;4.78;;;11.50;99.90;;;;;;4876668;29;20092;-73
2023/01/01 13:09:52;;;;;;;44.85;5.25;;;;;;;;;;4877183;29;20047;-73
2023/01/01 13:12:20;;;;;;;42.85;4.50;;;11.40;99.90;;;;;;4899534;29;20560;-73
2023/01/01 13:14:48;;;;;;;45.97;5.75;;;;;;;;;;4899916;29;20119;-73
2023/01/01 13:17:26;;;;;;;52.40;6.82;;;11.60;99.90;;;;;;4900778;29;20107;-73
2023/01/01 13:20:22;;;;;;;41.65;5.40;;;11.50;99.90;;;;;;4898237;29;20424;-74
2023/01/01 13:22:48;;;;;;;37.58;4.90;;;;;;;;;;4892180;29;20461;-74
2023/01/01 13:25:14;;;;;;;44.72;4.88;;;;;;;;;;4900158;29;20048;-74
2023/01/01 13:27:56;;;;;;;35.85;4.90;;;11.50;99.90;;;;;;4899991;29;20059;-74
2023/01/01 13:30:40;;;;;;;33.05;4.35;;;;;;;;;;4900004;29;20051;-74
2023/01/01 13:33:22;;;;;;;39.45;4.65;;;;;;;;;;4900300;29;20103;-73
2023/01/01 13:36:16;;;;;;;43.50;4.40;;;;;;;;;;4899775;29;20127;-73
2023/01/01 13:38:56;;;;;;;45.53;5.47;;;11.40;99.90;;;;;;4899274;29;20047;-73
2023/01/01 13:41:29;;;;;;;27.60;3.70;;;12.20;99.90;;;;;;4884567;29;20218;-74
2023/01/01 13:43:55;;;;;;;37.67;4.93;;;;;;;;;;4899916;29;20044;-73
2023/01/01 13:46:40;;;;;;;37.28;5.10;;;11.40;99.90;;;;;;4884756;29;20043;-73
2023/01/01 13:49:34;;;;;;;39.13;4.60;;;11.30;99.90;;;;;;4900322;29;20396;-73
2023/01/01 13:52:09;;;;;;;37.50;4.63;;;;;;;;;;4899728;29;20187;-76
2023/01/01 13:54:40;;;;;;;46.72;5.85;;;;;;;;;;4900072;29;20055;-74
2023/01/01 13:57:09;;;;;;;35.83;5.20;;;11.30;99.90;;;;;;4899850;29;20048;-74
2023/01/01 13:59:35;;;;;;;39.65;5.47;;;;;;;;;;4884154;29;20040;-74
2023/01/01 14:02:21;;;;;;;51.97;5.35;;;11.20;99.90;;;;;;4899398;29;20091;-74
2023/01/01 14:04:50;;;;;;;47.30;4.32;;;;;;;;;;4898244;29;20107;-74
2023/01/01 14:07:16;;;;;;;42.13;5.38;;;;;;;;;;4899288;29;20048;-75
2023/01/01 14:09:42;;;;;;;36.78;4.18;;;;;;;;;;4899458;29;20230;-75
2023/01/01 14:12:19;;;;;;;42.45;4.55;;;11.30;99.90;;;;;;4883749;29;20067;-75
2023/01/01 14:14:45;;;;;;;66.60;6.53;;;;;;;;;;4898057;29;20067;-75
2023/01/01 14:17:13;;;;;;;44.90;4.78;;;;;;;;;;4883983;29;20044;-75
2023/01/01 14:19:40;;;;;;;63.20;6.50;;;11.20;99.90;;;;;;4896778;29;20040;-75
2023/01/01 14:22:07;;;;;;;40.08;4.75;;;;;;;;;;4883937;29;20103;-74